createdAt,value
2022-09-12T00:02:06.301Z,98163.73
2022-09-12T00:07:09.876Z,98160.23
2022-09-12T00:12:13.396Z,98170.09
2022-09-12T00:17:17.016Z,98172.40
2022-09-12T00:22:20.626Z,98168.22
2022-09-12T00:27:24.250Z,98166.17
2022-09-12T00:32:27.965Z,98168.61
2022-09-12T00:37:31.587Z,98171.45
2022-09-12T00:42:35.097Z,98171.91
2022-09-12T00:47:38.616Z,98169.48
2022-09-12T00:52:44.886Z,98166.86
2022-09-12T00:57:51.376Z,98166.31
2022-09-12T01:02:57.036Z,98174.58
2022-09-12T01:08:01.576Z,98177.38
2022-09-12T01:13:06.336Z,98175.88
2022-09-12T01:18:14.227Z,98179.09
2022-09-12T01:23:31.671Z,98173.05
2022-09-12T01:28:44.986Z,98177.66
2022-09-12T01:33:56.639Z,98172.38
2022-09-12T01:39:01.526Z,98167.54
2022-09-12T01:44:08.479Z,98161.04
2022-09-12T01:49:14.976Z,98166.75
2022-09-12T01:54:21.861Z,98170.35
2022-09-12T01:59:27.207Z,98174.64
2022-09-12T02:04:34.459Z,98177.91
2022-09-12T02:09:41.519Z,98179.58
2022-09-12T02:14:46.837Z,98184.61
2022-09-12T02:19:53.312Z,98186.30
2022-09-12T02:24:59.226Z,98182.13
2022-09-12T02:30:02.636Z,98183.42
2022-09-12T02:35:08.397Z,98182.64
2022-09-12T02:40:12.815Z,98179.89
2022-09-12T02:45:16.866Z,98175.20
2022-09-12T02:50:20.498Z,98175.15
2022-09-12T02:55:24.406Z,98178.15
2022-09-12T03:00:29.788Z,98188.15
2022-09-12T03:05:35.196Z,98184.52
2022-09-12T03:10:42.031Z,98189.06
2022-09-12T03:15:52.407Z,98191.11
2022-09-12T03:21:01.408Z,98192.15
2022-09-12T03:26:07.376Z,98199.06
2022-09-12T03:31:14.886Z,98196.06
2022-09-12T03:36:21.716Z,98194.15
2022-09-12T03:41:25.247Z,98195.51
2022-09-12T03:46:28.756Z,98198.45
2022-09-12T03:51:32.477Z,98206.21
2022-09-12T03:56:36.789Z,98214.30
2022-09-12T04:01:41.447Z,98213.27
2022-09-12T04:06:45.066Z,98215.33
2022-09-12T04:11:48.484Z,98212.61
2022-09-12T04:16:52.061Z,98220.77
2022-09-12T04:21:55.608Z,98218.50
2022-09-12T04:26:59.127Z,98218.09
2022-09-12T04:32:03.440Z,98224.45
2022-09-12T04:37:07.090Z,98223.20
2022-09-12T04:42:10.686Z,98230.26
2022-09-12T04:47:14.317Z,98229.48
2022-09-12T04:52:17.948Z,98232.74
2022-09-12T04:57:21.449Z,98238.75
2022-09-12T05:02:25.299Z,98238.56
2022-09-12T05:07:29.605Z,98241.56
2022-09-12T05:12:33.639Z,98248.14
2022-09-12T05:17:37.450Z,98249.03
2022-09-12T05:22:41.070Z,98250.88
2022-09-12T05:27:47.443Z,98256.47
2022-09-12T05:32:54.148Z,98260.07
2022-09-12T05:37:57.760Z,98267.86
2022-09-12T05:43:01.288Z,98273.48
2022-09-12T05:48:04.937Z,98273.98
2022-09-12T05:53:08.666Z,98278.06
2022-09-12T05:58:12.226Z,98271.36
2022-09-12T06:03:15.846Z,98270.73
2022-09-12T06:08:19.466Z,98273.52
2022-09-12T06:13:23.266Z,98275.14
2022-09-12T06:18:27.018Z,98278.70
2022-09-12T06:23:31.037Z,98277.05
2022-09-12T06:28:35.441Z,98277.93
2022-09-12T06:33:42.996Z,98282.25
2022-09-12T06:38:46.594Z,98284.52
2022-09-12T06:43:50.830Z,98286.04
2022-09-12T06:48:56.096Z,98287.05
2022-09-12T06:54:00.628Z,98289.86
2022-09-12T06:59:03.966Z,98292.41
2022-09-12T07:04:07.960Z,98293.63
2022-09-12T07:09:13.076Z,98286.63
2022-09-12T07:14:16.637Z,98286.83
2022-09-12T07:19:20.357Z,98291.55
2022-09-12T07:24:23.870Z,98287.23
2022-09-12T07:29:42.869Z,98294.27
2022-09-12T07:34:46.766Z,98299.45
2022-09-12T07:39:50.235Z,98302.98
2022-09-12T07:44:54.111Z,98310.80
2022-09-12T07:49:58.810Z,98314.94
2022-09-12T07:55:02.721Z,98315.17
2022-09-12T08:00:08.820Z,98321.52
2022-09-12T08:05:12.466Z,98320.55
2022-09-12T08:10:16.498Z,98320.56
2022-09-12T08:15:20.416Z,98322.10
2022-09-12T08:20:28.122Z,98327.86
2022-09-12T08:25:32.056Z,98328.43
2022-09-12T08:30:35.996Z,98327.33
2022-09-12T08:35:39.504Z,98320.31
2022-09-12T08:40:48.196Z,98315.36
2022-09-12T08:45:54.729Z,98313.80
2022-09-12T08:50:59.037Z,98324.91
2022-09-12T08:56:05.676Z,98324.30
2022-09-12T09:01:12.781Z,98316.89
2022-09-12T09:06:21.995Z,98320.33
2022-09-12T09:11:47.827Z,98317.93
2022-09-12T09:16:52.975Z,98312.11
2022-09-12T09:21:58.369Z,98311.80
2022-09-12T09:27:14.265Z,98318.48
2022-09-12T09:32:28.510Z,98316.27
2022-09-12T09:37:36.433Z,98320.63
2022-09-12T09:42:43.716Z,98310.77
2022-09-12T09:47:49.257Z,98318.77
2022-09-12T09:52:54.455Z,98323.86
2022-09-12T09:57:58.376Z,98324.55
2022-09-12T10:03:04.406Z,98323.50
2022-09-12T10:08:08.786Z,98319.98
2022-09-12T10:13:23.983Z,98321.83
2022-09-12T10:18:38.167Z,98316.00
2022-09-12T10:23:42.560Z,98319.91
2022-09-12T10:28:49.672Z,98316.65
2022-09-12T10:33:53.606Z,98310.75
2022-09-12T10:38:58.376Z,98312.15
2022-09-12T10:44:09.156Z,98304.23
2022-09-12T10:49:23.166Z,98303.52
2022-09-12T10:54:27.657Z,98306.23
2022-09-12T10:59:36.366Z,98319.25
2022-09-12T11:04:48.381Z,98314.37
2022-09-12T11:09:56.494Z,98307.27
2022-09-12T11:15:06.590Z,98315.16
2022-09-12T11:20:33.442Z,98309.91
2022-09-12T11:25:40.126Z,98308.22
2022-09-12T11:30:48.477Z,98306.32
2022-09-12T11:35:55.375Z,98307.35
2022-09-12T11:41:01.220Z,98303.42
2022-09-12T11:46:10.690Z,98304.45
2022-09-12T11:51:18.466Z,98304.51
2022-09-12T11:56:22.000Z,98307.30
2022-09-12T12:01:28.377Z,98312.15
2022-09-12T12:06:32.902Z,98313.00
2022-09-12T12:11:39.463Z,98313.95
2022-09-12T12:16:43.510Z,98313.34
2022-09-12T12:21:47.878Z,98311.83
2022-09-12T12:26:57.037Z,98307.96
2022-09-12T12:32:19.067Z,98312.63
2022-09-12T12:37:40.196Z,98311.63
2022-09-12T12:43:07.781Z,98318.08
2022-09-12T12:48:15.586Z,98323.46
2022-09-12T12:53:22.644Z,98315.63
2022-09-12T12:58:30.106Z,98313.91
2022-09-12T13:03:34.371Z,98312.21
2022-09-12T13:08:39.996Z,98305.52
2022-09-12T13:13:48.937Z,98305.70
2022-09-12T13:18:52.482Z,98303.27
2022-09-12T13:24:03.040Z,98299.42
2022-09-12T13:29:16.908Z,98300.81
2022-09-12T13:34:21.470Z,98287.89
2022-09-12T13:39:27.244Z,98290.05
2022-09-12T13:44:31.444Z,98290.25
2022-09-12T13:49:36.490Z,98289.13
2022-09-12T13:54:40.818Z,98290.41
2022-09-12T13:59:45.107Z,98285.40
2022-09-12T14:05:09.150Z,98283.84
2022-09-12T14:10:17.067Z,98286.98
2022-09-12T14:15:25.096Z,98287.56
2022-09-12T14:20:32.186Z,98285.79
2022-09-12T14:25:41.110Z,98279.63
2022-09-12T14:30:57.593Z,98274.84
2022-09-12T14:36:12.648Z,98269.04
2022-09-12T14:41:23.826Z,98267.69
2022-09-12T14:46:30.875Z,98269.19
2022-09-12T14:51:36.023Z,98270.64
2022-09-12T14:56:41.336Z,98269.13
2022-09-12T15:01:44.899Z,98269.46
2022-09-12T15:06:48.470Z,98265.98
2022-09-12T15:11:52.076Z,98267.84
2022-09-12T15:16:55.697Z,98267.93
2022-09-12T15:21:59.418Z,98265.70
2022-09-12T15:27:03.036Z,98272.63
2022-09-12T15:32:07.288Z,98274.76
2022-09-12T15:37:13.860Z,98275.65
2022-09-12T15:42:18.496Z,98275.73
2022-09-12T15:47:22.016Z,98281.61
2022-09-12T15:52:25.527Z,98281.54
2022-09-12T15:57:29.246Z,98283.21
2022-09-12T16:02:32.775Z,98283.36
2022-09-12T16:07:36.275Z,98279.97
2022-09-12T16:12:39.786Z,98283.34
2022-09-12T16:17:43.443Z,98284.66
2022-09-12T16:22:47.446Z,98284.41
2022-09-12T16:27:51.056Z,98284.84
2022-09-12T16:32:54.780Z,98285.84
2022-09-12T16:37:58.401Z,98277.85
2022-09-12T16:43:01.910Z,98286.06
2022-09-12T16:48:05.759Z,98283.35
2022-09-12T16:53:09.548Z,98284.68
2022-09-12T16:58:13.083Z,98279.67
2022-09-12T17:03:16.576Z,98280.34
2022-09-12T17:08:22.498Z,98281.14
2022-09-12T17:13:36.687Z,98280.61
2022-09-12T17:18:49.766Z,98281.16
2022-09-12T17:23:53.216Z,98277.03
2022-09-12T17:28:56.790Z,98284.89
2022-09-12T17:34:00.639Z,98298.14
2022-09-12T17:39:04.436Z,98302.38
2022-09-12T17:44:09.425Z,98308.92
2022-09-12T17:49:13.919Z,98311.96
2022-09-12T17:54:18.455Z,98316.41
2022-09-12T17:59:24.356Z,98320.27
2022-09-12T18:04:28.169Z,98326.00
2022-09-12T18:09:31.880Z,98326.39
2022-09-12T18:14:35.496Z,98326.48
2022-09-12T18:19:39.423Z,98322.73
2022-09-12T18:24:43.038Z,98323.35
2022-09-12T18:29:58.898Z,98327.37
2022-09-12T18:35:10.357Z,98331.46
2022-09-12T18:40:13.949Z,98331.75
2022-09-12T18:45:17.679Z,98331.96
2022-09-12T18:50:22.747Z,98336.49
2022-09-12T18:55:26.876Z,98339.58
2022-09-12T19:00:30.620Z,98333.67
2022-09-12T19:05:35.221Z,98332.45
2022-09-12T19:10:38.737Z,98335.90
2022-09-12T19:15:42.487Z,98337.36
2022-09-12T19:20:50.366Z,98337.55
2022-09-12T19:25:57.080Z,98334.85
2022-09-12T19:31:00.713Z,98329.51
2022-09-12T19:36:05.090Z,98329.07
2022-09-12T19:41:14.640Z,98322.78
2022-09-12T19:46:19.702Z,98320.65
2022-09-12T19:51:24.297Z,98320.80
2022-09-12T19:56:28.090Z,98320.27
2022-09-12T20:01:32.253Z,98317.58
2022-09-12T20:06:36.447Z,98313.46
2022-09-12T20:11:39.960Z,98309.57
2022-09-12T20:16:45.150Z,98307.20
2022-09-12T20:21:48.726Z,98304.66
2022-09-12T20:26:52.175Z,98304.09
2022-09-12T20:31:55.736Z,98293.94
2022-09-12T20:36:59.171Z,98300.76
2022-09-12T20:42:02.786Z,98301.13
2022-09-12T20:47:06.926Z,98292.29
2022-09-12T20:52:10.536Z,98296.02
2022-09-12T20:57:14.067Z,98294.15
2022-09-12T21:02:18.052Z,98295.70
2022-09-12T21:07:21.698Z,98287.02
2022-09-12T21:12:25.107Z,98288.67
2022-09-12T21:17:28.634Z,98286.66
2022-09-12T21:22:32.236Z,98287.89
2022-09-12T21:27:35.762Z,98286.20
2022-09-12T21:32:39.486Z,98284.11
2022-09-12T21:37:43.413Z,98286.88
2022-09-12T21:42:48.169Z,98288.98
2022-09-12T21:47:51.766Z,98293.16
2022-09-12T21:52:55.386Z,98292.08
2022-09-12T21:57:58.901Z,98287.31
2022-09-12T22:03:03.126Z,98279.73
2022-09-12T22:08:06.655Z,98275.55
2022-09-12T22:13:10.264Z,98273.08
2022-09-12T22:18:13.776Z,98264.45
2022-09-12T22:23:35.116Z,98263.13
2022-09-12T22:28:38.836Z,98260.70
2022-09-12T22:33:42.266Z,98256.17
2022-09-12T22:38:45.902Z,98253.81
2022-09-12T22:43:49.482Z,98251.17
2022-09-12T22:48:55.186Z,98256.84
2022-09-12T22:53:58.656Z,98259.62
2022-09-12T22:59:02.176Z,98258.32
2022-09-12T23:04:05.790Z,98259.67
2022-09-12T23:09:09.310Z,98256.76
2022-09-12T23:14:12.719Z,98254.64
2022-09-12T23:19:16.236Z,98249.00
2022-09-12T23:24:20.008Z,98240.03
2022-09-12T23:29:23.676Z,98245.83
2022-09-12T23:34:27.297Z,98246.43
2022-09-12T23:39:31.116Z,98242.86
2022-09-12T23:44:34.626Z,98245.66
2022-09-12T23:49:38.146Z,98236.40
2022-09-12T23:54:41.753Z,98239.04
2022-09-12T23:59:45.274Z,98235.40
